createdAt,value
2023-02-06T00:01:24.752Z,-2.31
2023-02-06T00:04:41.453Z,-2.38
2023-02-06T00:07:55.735Z,-2.43
2023-02-06T00:11:15.021Z,-2.41
2023-02-06T00:14:14.174Z,-2.35
2023-02-06T00:17:09.619Z,-2.28
2023-02-06T00:20:08.838Z,-2.18
2023-02-06T00:23:37.628Z,-2.07
2023-02-06T00:26:30.281Z,-1.99
2023-02-06T00:29:33.627Z,-1.94
2023-02-06T00:32:57.280Z,-1.93
2023-02-06T00:35:46.761Z,-1.95
2023-02-06T00:39:13.713Z,-1.93
2023-02-06T00:42:02.137Z,-1.98
2023-02-06T00:45:01.564Z,-1.97
2023-02-06T00:52:12.662Z,-1.93
2023-02-06T00:55:16.420Z,-1.89
2023-02-06T00:58:22.645Z,-1.80
2023-02-06T01:04:37.035Z,-1.81
2023-02-06T01:08:29.534Z,-1.92
2023-02-06T01:11:54.222Z,-2.07
2023-02-06T01:14:59.349Z,-2.11
2023-02-06T01:18:38.382Z,-2.12
2023-02-06T01:21:28.080Z,-2.19
2023-02-06T01:27:12.464Z,-2.21
2023-02-06T01:30:19.164Z,-2.21
2023-02-06T01:33:14.169Z,-2.15
2023-02-06T01:36:10.941Z,-2.10
2023-02-06T01:38:57.326Z,-2.07
2023-02-06T01:41:45.533Z,-2.10
2023-02-06T01:44:46.652Z,-2.12
2023-02-06T01:47:57.111Z,-2.12
2023-02-06T01:51:01.312Z,-2.12
2023-02-06T01:54:04.346Z,-2.09
2023-02-06T01:57:18.406Z,-2.06
2023-02-06T02:00:32.294Z,-2.04
2023-02-06T02:03:18.381Z,-1.99
2023-02-06T02:06:39.176Z,-1.95
2023-02-06T02:09:42.092Z,-1.93
2023-02-06T02:12:46.442Z,-1.89
2023-02-06T02:15:55.473Z,-1.95
2023-02-06T02:19:38.131Z,-1.97
2023-02-06T02:23:37.268Z,-1.92
2023-02-06T02:26:48.059Z,-1.85
2023-02-06T02:30:19.185Z,-1.79
2023-02-06T02:33:25.513Z,-1.75
2023-02-06T02:37:03.062Z,-1.74
2023-02-06T02:40:43.467Z,-1.86
2023-02-06T02:43:57.928Z,-1.97
2023-02-06T02:46:58.033Z,-1.99
2023-02-06T02:50:11.164Z,-2.02
2023-02-06T02:53:28.083Z,-2.00
2023-02-06T02:56:45.342Z,-2.02
2023-02-06T03:03:20.854Z,-2.05
2023-02-06T03:07:21.784Z,-2.05
2023-02-06T03:11:01.016Z,-2.10
2023-02-06T03:14:42.972Z,-2.12
2023-02-06T03:18:10.169Z,-2.10
2023-02-06T03:21:26.802Z,-2.10
2023-02-06T03:28:38.408Z,-1.92
2023-02-06T03:32:02.488Z,-1.99
2023-02-06T03:35:18.274Z,-1.99
2023-02-06T03:38:43.234Z,-1.96
2023-02-06T03:42:26.714Z,-1.92
2023-02-06T03:45:55.704Z,-1.90
2023-02-06T03:52:43.252Z,-1.87
2023-02-06T03:55:46.768Z,-1.90
2023-02-06T03:58:49.890Z,-1.90
2023-02-06T04:02:03.875Z,-1.87
2023-02-06T04:05:29.232Z,-1.85
2023-02-06T04:09:10.558Z,-1.84
2023-02-06T04:12:17.020Z,-1.82
2023-02-06T04:15:16.594Z,-1.83
2023-02-06T04:18:20.512Z,-1.88
2023-02-06T04:21:26.863Z,-1.91
2023-02-06T04:24:59.672Z,-1.90
2023-02-06T04:28:34.652Z,-1.90
2023-02-06T04:38:11.724Z,-1.92
2023-02-06T04:41:14.330Z,-2.01
2023-02-06T04:44:12.287Z,-2.07
2023-02-06T04:47:01.097Z,-2.06
2023-02-06T04:51:26.310Z,-2.04
2023-02-06T04:53:26.716Z,-2.07
2023-02-06T04:56:33.131Z,-2.04
2023-02-06T04:59:22.645Z,-2.00
2023-02-06T05:02:26.867Z,-1.95
2023-02-06T05:05:06.247Z,-1.90
2023-02-06T05:07:47.808Z,-1.84
2023-02-06T05:10:57.023Z,-1.84
2023-02-06T05:14:15.300Z,-1.86
2023-02-06T05:17:11.924Z,-1.89
2023-02-06T05:20:16.350Z,-1.94
2023-02-06T05:27:34.625Z,-2.01
2023-02-06T05:30:36.783Z,-2.02
2023-02-06T05:33:35.353Z,-2.01
2023-02-06T05:37:05.936Z,-1.97
2023-02-06T05:39:54.046Z,-1.96
2023-02-06T05:42:52.295Z,-1.93
2023-02-06T05:45:57.532Z,-1.90
2023-02-06T05:48:52.449Z,-1.89
2023-02-06T05:52:18.968Z,-1.88
2023-02-06T05:55:34.908Z,-1.92
2023-02-06T05:58:33.225Z,-1.96
2023-02-06T06:01:54.884Z,-1.97
2023-02-06T06:05:52.604Z,-2.00
2023-02-06T06:08:49.043Z,-2.02
2023-02-06T06:15:22.014Z,-1.97
2023-02-06T06:18:06.600Z,-1.93
2023-02-06T06:21:26.642Z,-1.91
2023-02-06T06:24:44.805Z,-1.89
2023-02-06T06:28:01.768Z,-1.87
2023-02-06T06:31:03.412Z,-1.86
2023-02-06T06:33:57.894Z,-1.87
2023-02-06T06:37:21.767Z,-1.87
2023-02-06T06:40:51.265Z,-1.92
2023-02-06T06:44:27.253Z,-1.97
2023-02-06T06:48:24.774Z,-2.02
2023-02-06T06:52:37.544Z,-2.05
2023-02-06T07:06:34.439Z,-1.98
2023-02-06T07:09:36.697Z,-1.93
2023-02-06T07:12:16.897Z,-1.90
2023-02-06T07:14:55.214Z,-1.83
2023-02-06T07:17:40.586Z,-1.77
2023-02-06T07:20:51.776Z,-1.74
2023-02-06T07:23:36.298Z,-1.69
2023-02-06T07:26:46.850Z,-1.66
2023-02-06T07:29:44.524Z,-1.62
2023-02-06T07:32:42.367Z,-1.56
2023-02-06T07:36:22.581Z,-1.45
2023-02-06T07:39:15.450Z,-1.32
2023-02-06T07:42:12.680Z,-1.23
2023-02-06T07:45:51.345Z,-1.09
2023-02-06T08:04:36.147Z,-0.68
2023-02-06T08:10:54.111Z,-0.60
2023-02-06T08:13:57.009Z,-0.56
2023-02-06T08:16:54.244Z,-0.49
2023-02-06T08:19:58.761Z,-0.41
2023-02-06T08:23:20.836Z,-0.34
2023-02-06T08:26:27.490Z,-0.28
2023-02-06T08:29:25.787Z,-0.24
2023-02-06T08:32:30.034Z,-0.23
2023-02-06T08:35:59.827Z,-0.21
2023-02-06T08:39:28.720Z,-0.26
2023-02-06T08:42:55.114Z,-0.23
2023-02-06T08:46:19.366Z,-0.18
2023-02-06T08:53:58.062Z,-0.01
2023-02-06T09:03:36.777Z,0.05
2023-02-06T09:24:04.210Z,0.14
2023-02-06T09:28:21.118Z,0.15
2023-02-06T09:33:07.245Z,0.19
2023-02-06T09:34:49.318Z,0.26
2023-02-06T09:37:38.210Z,0.35
2023-02-06T09:40:41.942Z,0.44
2023-02-06T09:43:41.593Z,0.56
2023-02-06T09:46:55.061Z,0.61
2023-02-06T09:50:12.678Z,0.67
2023-02-06T09:53:24.298Z,0.84
2023-02-06T09:56:52.751Z,1.02
2023-02-06T10:03:03.582Z,1.37
2023-02-06T10:06:38.016Z,1.53
2023-02-06T10:10:00.012Z,1.68
2023-02-06T10:17:11.127Z,2.06
2023-02-06T10:25:01.184Z,2.59
2023-02-06T10:27:48.651Z,2.75
2023-02-06T10:30:50.134Z,2.89
2023-02-06T10:34:39.336Z,3.06
2023-02-06T10:39:42.956Z,3.12
2023-02-06T10:47:16.200Z,3.62
2023-02-06T10:50:57.291Z,4.11
2023-02-06T11:37:17.541Z,4.82
2023-02-06T11:40:40.014Z,4.45
2023-02-06T11:43:48.605Z,4.16
2023-02-06T11:47:04.663Z,3.97
2023-02-06T11:50:02.635Z,3.72
2023-02-06T11:52:45.748Z,3.45
2023-02-06T11:55:34.983Z,3.17
2023-02-06T11:58:39.831Z,2.91
2023-02-06T12:01:33.325Z,2.66
2023-02-06T12:04:41.435Z,2.36
2023-02-06T12:07:49.877Z,2.08
2023-02-06T12:11:06.346Z,1.85
2023-02-06T12:14:21.684Z,1.65
2023-02-06T12:17:45.199Z,1.55
2023-02-06T12:31:20.966Z,1.10
2023-02-06T12:53:26.694Z,0.78
2023-02-06T13:03:54.713Z,0.52
2023-02-06T13:07:32.251Z,0.69
2023-02-06T13:10:31.030Z,0.70
2023-02-06T13:13:30.168Z,0.76
2023-02-06T13:16:20.038Z,0.85
2023-02-06T16:14:59.360Z,-0.11
2023-02-06T16:17:40.900Z,-0.19
2023-02-06T16:20:38.914Z,-0.22
2023-02-06T16:23:27.842Z,-0.24
2023-02-06T16:26:12.663Z,-0.24
2023-02-06T16:29:03.712Z,-0.25
2023-02-06T16:31:37.749Z,-0.27
2023-02-06T16:34:30.808Z,-0.30
2023-02-06T16:36:59.110Z,-0.34
2023-02-06T16:39:27.507Z,-0.38
2023-02-06T16:41:55.202Z,-0.40
2023-02-06T16:44:33.055Z,-0.41
2023-02-06T16:47:12.509Z,-0.41
2023-02-06T16:49:40.804Z,-0.37
2023-02-06T16:52:18.077Z,-0.34
2023-02-06T16:54:46.757Z,-0.33
2023-02-06T16:57:32.761Z,-0.34
2023-02-06T17:00:03.363Z,-0.38
2023-02-06T17:02:31.128Z,-0.43
2023-02-06T17:04:59.008Z,-0.47
2023-02-06T17:07:31.426Z,-0.52
2023-02-06T17:09:59.423Z,-0.56
2023-02-06T17:12:28.134Z,-0.59
2023-02-06T17:14:56.052Z,-0.64
2023-02-06T17:17:27.306Z,-0.69
2023-02-06T17:19:55.894Z,-0.75
2023-02-06T17:22:23.760Z,-0.82
2023-02-06T17:24:51.934Z,-0.88
2023-02-06T17:30:31.879Z,-1.01
2023-02-06T17:33:00.191Z,-1.05
2023-02-06T17:35:29.030Z,-1.08
2023-02-06T17:38:00.166Z,-1.12
2023-02-06T17:40:44.064Z,-1.16
2023-02-06T17:44:05.814Z,-1.20
2023-02-06T17:47:00.743Z,-1.26
2023-02-06T17:49:34.666Z,-1.28
2023-02-06T17:52:02.972Z,-1.31
2023-02-06T17:54:35.585Z,-1.33
2023-02-06T17:57:11.800Z,-1.35
2023-02-06T18:00:25.031Z,-1.39
2023-02-06T18:03:15.153Z,-1.45
2023-02-06T18:06:00.778Z,-1.48
2023-02-06T18:08:33.539Z,-1.48
2023-02-06T18:11:21.227Z,-1.47
2023-02-06T18:13:50.905Z,-1.46
2023-02-06T18:16:23.247Z,-1.45
2023-02-06T18:18:51.382Z,-1.45
2023-02-06T18:21:21.045Z,-1.50
2023-02-06T18:23:52.705Z,-1.48
2023-02-06T18:26:22.217Z,-1.48
2023-02-06T18:28:51.535Z,-1.44
2023-02-06T18:31:27.650Z,-1.40
2023-02-06T18:34:08.461Z,-1.37
2023-02-06T18:36:37.673Z,-1.34
2023-02-06T18:39:06.341Z,-1.31
2023-02-06T18:41:52.587Z,-1.29
2023-02-06T18:44:20.514Z,-1.29
2023-02-06T18:46:48.210Z,-1.27
2023-02-06T18:49:17.222Z,-1.25
2023-02-06T18:51:46.042Z,-1.20
2023-02-06T18:54:14.103Z,-1.15
2023-02-06T18:56:41.952Z,-1.10
2023-02-06T18:59:09.807Z,-1.05
2023-02-06T19:01:38.399Z,-1.01
2023-02-06T19:04:07.194Z,-0.98
2023-02-06T19:06:36.096Z,-0.98
2023-02-06T19:09:06.508Z,-0.95
2023-02-06T19:11:36.565Z,-0.93
2023-02-06T19:14:11.206Z,-0.92
2023-02-06T19:16:40.264Z,-0.94
2023-02-06T19:19:08.132Z,-0.97
2023-02-06T19:21:36.400Z,-1.03
2023-02-06T19:24:05.322Z,-1.10
2023-02-06T19:26:33.536Z,-1.18
2023-02-06T19:29:01.637Z,-1.26
2023-02-06T19:31:31.453Z,-1.33
2023-02-06T19:34:01.732Z,-1.41
2023-02-06T19:36:31.778Z,-1.47
2023-02-06T19:39:04.795Z,-1.52
2023-02-06T19:41:35.144Z,-1.58
2023-02-06T19:44:08.373Z,-1.61
2023-02-06T19:46:37.868Z,-1.65
2023-02-06T19:49:08.285Z,-1.66
2023-02-06T19:51:41.339Z,-1.68
2023-02-06T19:54:09.280Z,-1.68
2023-02-06T19:56:42.115Z,-1.67
2023-02-06T19:59:19.747Z,-1.68
2023-02-06T20:01:54.282Z,-1.69
2023-02-06T20:04:28.436Z,-1.70
2023-02-06T20:06:56.932Z,-1.71
2023-02-06T20:09:28.079Z,-1.73
2023-02-06T20:11:56.329Z,-1.77
2023-02-06T20:14:25.694Z,-1.82
2023-02-06T20:16:53.419Z,-1.86
2023-02-06T20:19:25.758Z,-1.93
2023-02-06T20:21:58.065Z,-2.00
2023-02-06T20:24:32.073Z,-2.06
2023-02-06T20:27:07.293Z,-2.12
2023-02-06T20:29:38.893Z,-2.17
2023-02-06T20:32:06.868Z,-2.21
2023-02-06T20:34:35.479Z,-2.23
2023-02-06T20:37:04.247Z,-2.24
2023-02-06T20:39:34.074Z,-2.26
2023-02-06T20:42:01.686Z,-2.28
2023-02-06T20:44:30.049Z,-2.30
2023-02-06T20:47:00.623Z,-2.33
2023-02-06T20:49:30.960Z,-2.37
2023-02-06T20:52:00.809Z,-2.40
2023-02-06T20:54:30.024Z,-2.43
2023-02-06T20:56:59.784Z,-2.46
2023-02-06T20:59:28.100Z,-2.49
2023-02-06T21:01:56.621Z,-2.52
2023-02-06T21:04:24.569Z,-2.57
2023-02-06T21:06:56.030Z,-2.63
2023-02-06T21:09:23.765Z,-2.71
2023-02-06T21:11:51.416Z,-2.77
2023-02-06T21:14:19.708Z,-2.82
2023-02-06T21:16:50.533Z,-2.87
2023-02-06T21:19:20.269Z,-2.91
2023-02-06T21:21:49.059Z,-2.95
2023-02-06T21:24:20.990Z,-2.96
2023-02-06T21:26:49.226Z,-2.96
2023-02-06T21:29:17.088Z,-2.95
2023-02-06T21:31:45.640Z,-2.94
2023-02-06T21:34:24.252Z,-2.93
2023-02-06T21:36:54.067Z,-2.97
2023-02-06T21:39:26.459Z,-2.98
2023-02-06T21:41:54.683Z,-2.98
2023-02-06T21:44:44.404Z,-2.97
2023-02-06T21:47:12.150Z,-2.97
2023-02-06T21:49:39.844Z,-2.97
2023-02-06T21:52:07.756Z,-2.97
2023-02-06T21:54:35.555Z,-2.96
2023-02-06T21:57:03.511Z,-2.99
2023-02-06T21:59:33.455Z,-3.01
2023-02-06T22:02:01.480Z,-3.03
2023-02-06T22:04:29.295Z,-3.08
2023-02-06T22:06:59.632Z,-3.15
2023-02-06T22:09:27.526Z,-3.22
2023-02-06T22:11:55.188Z,-3.27
2023-02-06T22:14:23.015Z,-3.30
2023-02-06T22:16:50.892Z,-3.32
2023-02-06T22:19:18.845Z,-3.33
2023-02-06T22:21:47.407Z,-3.35
2023-02-06T22:24:15.091Z,-3.37
2023-02-06T22:26:43.625Z,-3.39
2023-02-06T22:29:17.041Z,-3.40
2023-02-06T22:31:48.152Z,-3.42
2023-02-06T22:34:20.464Z,-3.44
2023-02-06T22:36:50.507Z,-3.46
2023-02-06T22:39:19.005Z,-3.50
2023-02-06T22:41:47.797Z,-3.53
2023-02-06T22:44:19.502Z,-3.56
2023-02-06T22:46:52.664Z,-3.59
2023-02-06T22:49:21.772Z,-3.62
2023-02-06T22:51:49.947Z,-3.63
2023-02-06T22:54:18.145Z,-3.65
2023-02-06T22:56:47.630Z,-3.66
2023-02-06T22:59:38.709Z,-3.67
2023-02-06T23:02:09.012Z,-3.73
2023-02-06T23:04:37.947Z,-3.78
2023-02-06T23:07:06.044Z,-3.82
2023-02-06T23:09:37.949Z,-3.85
2023-02-06T23:12:06.387Z,-3.89
2023-02-06T23:14:34.249Z,-3.93
2023-02-06T23:17:03.478Z,-3.95
2023-02-06T23:19:31.303Z,-3.98
2023-02-06T23:21:59.163Z,-3.99
2023-02-06T23:24:27.493Z,-4.00
2023-02-06T23:26:55.310Z,-4.02
2023-02-06T23:29:23.775Z,-4.05
2023-02-06T23:31:52.545Z,-4.09
2023-02-06T23:34:23.673Z,-4.11
2023-02-06T23:36:51.958Z,-4.12
2023-02-06T23:39:23.113Z,-4.12
2023-02-06T23:41:51.172Z,-4.13
2023-02-06T23:44:19.138Z,-4.16
2023-02-06T23:46:47.241Z,-4.19
2023-02-06T23:49:15.037Z,-4.21
2023-02-06T23:51:42.875Z,-4.24
2023-02-06T23:54:10.855Z,-4.26
2023-02-06T23:56:38.604Z,-4.31
2023-02-06T23:59:06.380Z,-4.37
